Time;durP1;ratioP1;P1;durP2;ratioP2;P2;SDS_P1;SDS_P2;PMS_P1;PMS_P2;Temp;Humidity;BMP_temperature;BMP_pressure;BME280_temperature;BME280_humidity;BME280_pressure;Samples;Min_cycle;Max_cycle;Signal;HPM_P1;HPM_P2
2021/10/06 00:01:34;;;;;;;;;;;10.60;99.90;;;;;;5095563;28;19924;-87
2021/10/06 00:04:01;;;;;;;;;;;10.60;99.90;;;;;;5095069;28;19978;-87
2021/10/06 00:06:28;;;;;;;;;;;10.60;99.90;;;;;;5095041;28;19938;-86
2021/10/06 00:08:56;;;;;;;;;;;10.50;99.90;;;;;;5095402;28;19928;-87
2021/10/06 00:11:23;;;;;;;;;;;10.50;99.90;;;;;;5095313;28;19924;-87
2021/10/06 00:13:50;;;;;;;;;;;10.50;99.90;;;;;;5094875;28;19938;-86
2021/10/06 00:16:17;;;;;;;;;;;10.50;99.90;;;;;;5095162;28;19924;-86
2021/10/06 00:18:44;;;;;;;;;;;10.50;99.90;;;;;;5099107;28;19934;-86
2021/10/06 00:21:11;;;;;;;;;;;10.50;99.90;;;;;;5099385;28;19934;-85
2021/10/06 00:23:37;;;;;;;;;;;10.50;99.90;;;;;;5099330;28;19928;-85
2021/10/06 00:26:06;;;;;;;;;;;10.50;99.90;;;;;;5099182;28;19954;-86
2021/10/06 00:28:33;;;;;;;;;;;10.50;99.90;;;;;;5099036;28;19924;-85
2021/10/06 00:30:59;;;;;;;;;;;10.50;99.90;;;;;;5099211;28;19934;-84
2021/10/06 00:33:26;;;;;;;;;;;10.50;99.90;;;;;;5100155;28;20250;-83
2021/10/06 00:35:53;;;;;;;;;;;10.20;99.90;;;;;;5099228;28;19924;-84
2021/10/06 00:38:21;;;;;;;;;;;10.60;99.90;;;;;;5099199;28;19931;-84
2021/10/06 00:40:48;;;;;;;;;;;10.50;99.90;;;;;;5098805;28;19927;-86
2021/10/06 00:43:16;;;;;;;;;;;10.50;99.90;;;;;;5098857;28;19924;-86
2021/10/06 00:45:43;;;;;;;;;;;10.50;99.90;;;;;;5098842;28;19924;-84
2021/10/06 00:48:10;;;;;;;;;;;10.50;99.90;;;;;;5099274;28;19923;-85
2021/10/06 00:50:38;;;;;;;;;;;10.50;99.90;;;;;;5098813;28;19924;-85
2021/10/06 00:53:04;;;;;;;;;;;10.40;99.90;;;;;;5098721;28;19928;-85
2021/10/06 00:55:31;;;;;;;;;;;10.40;99.90;;;;;;5098470;28;19924;-85
2021/10/06 00:57:58;;;;;;;;;;;10.30;99.90;;;;;;5098495;28;19935;-86
2021/10/06 01:00:26;;;;;;;;;;;10.40;99.90;;;;;;5098346;28;19934;-86
2021/10/06 01:02:53;;;;;;;;;;;10.20;99.90;;;;;;5098665;28;19924;-86
2021/10/06 01:05:20;;;;;;;;;;;10.20;99.90;;;;;;5098607;28;19931;-86
2021/10/06 01:07:47;;;;;;;;;;;10.20;99.90;;;;;;5098655;28;19924;-86
2021/10/06 01:10:14;;;;;;;;;;;10.20;99.90;;;;;;5098632;28;19925;-86
2021/10/06 01:12:41;;;;;;;;;;;10.20;99.90;;;;;;5098230;28;20265;-86
2021/10/06 01:15:09;;;;;;;;;;;10.20;99.90;;;;;;5098096;28;19924;-86
2021/10/06 01:17:37;;;;;;;;;;;10.20;99.90;;;;;;5098231;28;19930;-86
2021/10/06 01:20:04;;;;;;;;;;;10.20;99.90;;;;;;5098085;28;19934;-86
2021/10/06 01:22:32;;;;;;;;;;;10.20;99.90;;;;;;5097988;28;20269;-86
2021/10/06 01:25:01;;;;;;;;;;;10.20;99.90;;;;;;5097950;28;20382;-87
2021/10/06 01:27:28;;;;;;;;;;;10.20;99.90;;;;;;5097985;28;19932;-86
2021/10/06 01:29:55;;;;;;;;;;;10.20;99.90;;;;;;5097855;28;19931;-87
2021/10/06 01:32:21;;;;;;;;;;;10.20;99.90;;;;;;5097821;28;19924;-86
2021/10/06 01:34:55;;;;;;;;;;;10.30;99.90;;;;;;5095865;28;19924;-84
2021/10/06 01:37:22;;;;;;;;;;;10.30;99.90;;;;;;5077560;28;19924;-86
2021/10/06 01:39:50;;;;;;;;;;;10.30;99.90;;;;;;5077268;28;19951;-87
2021/10/06 01:42:17;;;;;;;;;;;10.20;99.90;;;;;;5077416;28;19924;-86
2021/10/06 01:44:44;;;;;;;;;;;10.20;99.90;;;;;;5077338;28;19931;-84
2021/10/06 01:47:17;;;;;;;;;;;10.20;99.90;;;;;;5077242;28;19937;-86
2021/10/06 01:49:46;;;;;;;;;;;10.20;99.90;;;;;;5077353;28;19924;-86
2021/10/06 01:52:15;;;;;;;;;;;10.20;99.90;;;;;;5076991;28;19924;-85
2021/10/06 01:54:42;;;;;;;;;;;10.20;99.90;;;;;;5077250;28;19924;-86
2021/10/06 01:57:10;;;;;;;;;;;10.30;99.90;;;;;;5076970;28;20368;-86
2021/10/06 01:59:37;;;;;;;;;;;10.30;99.90;;;;;;5076961;28;19924;-85
2021/10/06 02:02:04;;;;;;;;;;;10.30;99.90;;;;;;5077116;28;20277;-86
2021/10/06 02:04:31;;;;;;;;;;;10.30;99.90;;;;;;5076974;28;20350;-86
2021/10/06 02:06:58;;;;;;;;;;;10.30;99.90;;;;;;5076997;28;20356;-87
2021/10/06 02:09:24;;;;;;;;;;;10.30;99.90;;;;;;5077330;28;20258;-85
2021/10/06 02:11:51;;;;;;;;;;;10.30;99.90;;;;;;5076993;28;20335;-86
2021/10/06 02:14:19;;;;;;;;;;;10.30;99.90;;;;;;5076870;28;19931;-86
2021/10/06 02:16:46;;;;;;;;;;;10.30;99.90;;;;;;5076669;28;19924;-85
2021/10/06 02:19:13;;;;;;;;;;;10.30;99.90;;;;;;5076676;28;19924;-85
2021/10/06 02:21:40;;;;;;;;;;;10.30;99.90;;;;;;5078940;28;19935;-86
2021/10/06 02:24:07;;;;;;;;;;;10.20;99.90;;;;;;5096839;28;19932;-86
2021/10/06 02:26:34;;;;;;;;;;;10.20;99.90;;;;;;5096694;28;19935;-85
2021/10/06 02:29:01;;;;;;;;;;;10.20;99.90;;;;;;5096848;28;19951;-86
2021/10/06 02:31:29;;;;;;;;;;;10.20;99.90;;;;;;5096759;28;19924;-85
2021/10/06 02:33:56;;;;;;;;;;;10.20;99.90;;;;;;5096786;28;19924;-86
2021/10/06 02:36:23;;;;;;;;;;;10.10;99.90;;;;;;5096600;28;19924;-85
2021/10/06 02:38:50;;;;;;;;;;;10.10;99.90;;;;;;5096713;28;19935;-85
2021/10/06 02:41:16;;;;;;;;;;;10.10;99.90;;;;;;5096269;28;19934;-86
2021/10/06 02:43:43;;;;;;;;;;;10.10;99.90;;;;;;5096846;28;19935;-85
2021/10/06 02:46:10;;;;;;;;;;;10.10;99.90;;;;;;5096634;28;19928;-84
2021/10/06 02:48:38;;;;;;;;;;;10.00;99.90;;;;;;5096504;28;19924;-84
2021/10/06 02:51:05;;;;;;;;;;;10.00;99.90;;;;;;5096915;28;19934;-85
2021/10/06 02:53:32;;;;;;;;;;;10.00;99.90;;;;;;5096713;28;19924;-84
2021/10/06 02:55:59;;;;;;;;;;;10.00;99.90;;;;;;5096819;28;19925;-84
2021/10/06 02:58:26;;;;;;;;;;;9.90;99.90;;;;;;5096737;28;19935;-83
2021/10/06 03:00:55;;;;;;;;;;;10.00;99.90;;;;;;5097340;28;19935;-84
2021/10/06 03:03:22;;;;;;;;;;;10.00;99.90;;;;;;5095757;28;19924;-84
2021/10/06 03:05:50;;;;;;;;;;;10.00;99.90;;;;;;5096434;28;19939;-83
2021/10/06 03:08:17;;;;;;;;;;;10.10;99.90;;;;;;5096620;28;19924;-83
2021/10/06 03:10:44;;;;;;;;;;;9.10;99.90;;;;;;5097365;28;19924;-83
2021/10/06 03:13:11;;;;;;;;;;;10.10;99.90;;;;;;5097087;28;19928;-84
2021/10/06 03:18:41;;;;;;;;;;;9.80;99.90;;;;;;5101605;28;19997;-83
2021/10/06 03:21:09;;;;;;;;;;;9.90;99.90;;;;;;5098806;28;19934;-83
2021/10/06 03:23:36;;;;;;;;;;;9.70;99.90;;;;;;5100552;28;20280;-83
2021/10/06 03:26:03;;;;;;;;;;;9.90;99.90;;;;;;5097946;28;19924;-83
2021/10/06 03:28:30;;;;;;;;;;;10.00;99.90;;;;;;5097197;28;20260;-83
2021/10/06 03:30:57;;;;;;;;;;;10.10;99.90;;;;;;5096772;28;19935;-84
2021/10/06 03:33:24;;;;;;;;;;;10.00;99.90;;;;;;5097038;28;19924;-84
2021/10/06 03:35:53;;;;;;;;;;;10.10;99.90;;;;;;5096382;28;20273;-85
2021/10/06 03:41:32;;;;;;;;;;;10.00;99.90;;;;;;5093681;22;19925;-83
2021/10/06 03:43:59;;;;;;;;;;;10.00;99.90;;;;;;5037149;28;20267;-84
2021/10/06 03:46:27;;;;;;;;;;;10.00;99.90;;;;;;5036848;28;20027;-83
2021/10/06 03:48:53;;;;;;;;;;;10.00;99.90;;;;;;5035543;28;19935;-84
2021/10/06 03:51:20;;;;;;;;;;;10.10;99.90;;;;;;5035102;28;19925;-84
2021/10/06 03:53:47;;;;;;;;;;;10.00;99.90;;;;;;5051750;28;19931;-84
2021/10/06 03:56:14;;;;;;;;;;;10.00;99.90;;;;;;5055872;28;19925;-83
2021/10/06 03:58:42;;;;;;;;;;;10.00;99.90;;;;;;5055364;28;20355;-84
2021/10/06 04:01:09;;;;;;;;;;;12.10;99.90;;;;;;5055716;28;19964;-83
2021/10/06 04:03:36;;;;;;;;;;;10.10;99.90;;;;;;5055300;28;19925;-84
2021/10/06 04:06:03;;;;;;;;;;;12.00;99.90;;;;;;5054947;28;19929;-84
2021/10/06 04:08:30;;;;;;;;;;;10.10;99.90;;;;;;5054800;28;20031;-84
2021/10/06 04:10:57;;;;;;;;;;;10.10;99.90;;;;;;5055389;28;19935;-84
2021/10/06 04:13:24;;;;;;;;;;;10.10;99.90;;;;;;5055212;28;19924;-84
2021/10/06 04:15:52;;;;;;;;;;;10.10;99.90;;;;;;5054944;28;19925;-86
2021/10/06 04:18:19;;;;;;;;;;;10.10;99.90;;;;;;5054922;28;19947;-85
2021/10/06 04:20:46;;;;;;;;;;;10.10;99.90;;;;;;5055039;28;19925;-83
2021/10/06 04:23:12;;;;;;;;;;;10.10;99.90;;;;;;5055346;28;19928;-83
2021/10/06 04:25:39;;;;;;;;;;;10.00;99.90;;;;;;5056065;28;19925;-85
2021/10/06 04:28:06;;;;;;;;;;;9.90;99.90;;;;;;5055758;28;19936;-83
2021/10/06 04:30:33;;;;;;;;;;;9.90;99.90;;;;;;5055263;28;19928;-84
2021/10/06 04:33:01;;;;;;;;;;;9.80;99.90;;;;;;5055263;28;19924;-83
2021/10/06 04:35:28;;;;;;;;;;;9.80;99.90;;;;;;5055852;28;19925;-83
2021/10/06 04:37:55;;;;;;;;;;;9.70;99.90;;;;;;5055601;28;19925;-83
2021/10/06 04:40:22;;;;;;;;;;;9.70;99.90;;;;;;5055543;28;20429;-83
2021/10/06 04:42:50;;;;;;;;;;;9.70;99.90;;;;;;5056158;28;19924;-83
2021/10/06 04:45:17;;;;;;;;;;;9.70;99.90;;;;;;5055980;28;19936;-83
2021/10/06 04:47:44;;;;;;;;;;;7.30;99.90;;;;;;5055616;28;19929;-83
2021/10/06 04:50:12;;;;;;;;;;;9.70;99.90;;;;;;5055029;28;19925;-83
2021/10/06 04:52:39;;;;;;;;;;;9.70;99.90;;;;;;5055696;28;19947;-84
2021/10/06 04:55:06;;;;;;;;;;;9.70;99.90;;;;;;5056494;28;19935;-83
2021/10/06 04:57:33;;;;;;;;;;;9.60;99.90;;;;;;5058804;28;19978;-82
2021/10/06 05:00:00;;;;;;;;;;;9.60;99.90;;;;;;5057696;28;19979;-83
2021/10/06 05:02:27;;;;;;;;;;;9.50;99.90;;;;;;5057626;28;19925;-82
2021/10/06 05:04:54;;;;;;;;;;;9.50;99.90;;;;;;5060371;28;20404;-83
2021/10/06 05:07:22;;;;;;;;;;;9.50;99.90;;;;;;5062903;28;19925;-82
2021/10/06 05:09:49;;;;;;;;;;;9.40;99.90;;;;;;5061769;28;19925;-82
2021/10/06 05:12:16;;;;;;;;;;;9.40;99.90;;;;;;5060823;28;20015;-83
2021/10/06 05:14:43;;;;;;;;;;;9.40;99.90;;;;;;5060900;28;19924;-82
2021/10/06 05:17:10;;;;;;;;;;;9.50;99.90;;;;;;5060379;28;19935;-83
2021/10/06 05:19:37;;;;;;;;;;;9.40;99.90;;;;;;5059676;28;19939;-83
2021/10/06 05:22:04;;;;;;;;;;;9.50;99.90;;;;;;5058861;28;19924;-83
2021/10/06 05:24:32;;;;;;;;;;;9.50;99.90;;;;;;5060543;28;20381;-83
2021/10/06 05:26:59;;;;;;;;;;;9.90;99.90;;;;;;5062006;28;20258;-82
2021/10/06 05:29:26;;;;;;;;;;;9.40;99.90;;;;;;5060904;28;19924;-83
2021/10/06 05:31:53;;;;;;;;;;;9.60;99.90;;;;;;5062811;28;20003;-81
2021/10/06 06:49:21;;;;;;;;;;;8.60;99.90;;;;;;5124928;22;19908;-80
2021/10/06 06:51:48;;;;;;;;;;;8.50;99.90;;;;;;5097299;28;19960;-81
2021/10/06 06:54:22;;;;;;;;;;;8.50;99.90;;;;;;5100527;28;19932;-81
2021/10/06 07:28:05;;;;;;;;;;;8.70;99.90;;;;;;4988420;28;19941;-79
2021/10/06 07:53:26;;;;;;;;;;;9.20;99.90;;;;;;4985098;28;19910;-79
2021/10/06 08:05:12;;;;;;;;;;;9.40;99.90;;;;;;5059069;28;19908;-81
2021/10/06 08:11:19;;;;;;;;;;;9.50;99.90;;;;;;5099686;28;19962;-81
2021/10/06 08:14:00;;;;;;;;;;;9.50;99.90;;;;;;5098504;28;19908;-80
2021/10/06 08:16:49;;;;;;;;;;;9.60;99.90;;;;;;5098154;28;19909;-80
2021/10/06 08:19:31;;;;;;;;;;;9.60;99.90;;;;;;5096609;28;19947;-81
2021/10/06 08:27:33;;;;;;;;;;;9.70;99.90;;;;;;5090730;28;19931;-81
2021/10/06 08:30:05;;;;;;;;;;;9.70;99.90;;;;;;5078781;28;20377;-81
2021/10/06 08:32:31;;;;;;;;;;;9.70;99.90;;;;;;5082975;28;20015;-81
2021/10/06 08:34:59;;;;;;;;;;;9.70;99.90;;;;;;5083006;28;20011;-81
2021/10/06 08:37:28;;;;;;;;;;;9.80;99.90;;;;;;5081418;28;19964;-81
2021/10/06 08:39:55;;;;;;;;;;;9.80;99.90;;;;;;5081965;28;19938;-81
2021/10/06 08:42:22;;;;;;;;;;;9.80;99.90;;;;;;5081788;28;19939;-81
2021/10/06 08:44:52;;;;;;;;;;;9.90;99.90;;;;;;5081651;28;19924;-81
2021/10/06 08:47:21;;;;;;;;;;;9.90;99.90;;;;;;5084142;28;19931;-81
2021/10/06 08:50:12;;;;;;;;;;;9.90;99.90;;;;;;5082457;28;19929;-81
2021/10/06 08:52:39;;;;;;;;;;;10.00;99.90;;;;;;5085009;28;19979;-81
2021/10/06 08:55:06;;;;;;;;;;;10.20;99.90;;;;;;5082629;28;19931;-81
2021/10/06 08:57:33;;;;;;;;;;;10.10;99.90;;;;;;5080983;28;19935;-81
2021/10/06 09:00:00;;;;;;;;;;;10.20;99.90;;;;;;5079227;28;19935;-81
2021/10/06 09:02:29;;;;;;;;;;;10.20;99.90;;;;;;5078790;28;19930;-82
2021/10/06 09:04:56;;;;;;;;;;;10.20;99.90;;;;;;5078424;28;20361;-82
2021/10/06 09:07:23;;;;;;;;;;;10.10;99.90;;;;;;5078062;28;19924;-82
2021/10/06 09:09:50;;;;;;;;;;;10.20;99.90;;;;;;5078593;28;19924;-83
2021/10/06 09:12:17;;;;;;;;;;;10.30;99.90;;;;;;5078472;28;19925;-83
2021/10/06 09:14:45;;;;;;;;;;;10.30;99.90;;;;;;5078048;28;20350;-84
2021/10/06 09:17:13;;;;;;;;;;;10.40;99.90;;;;;;5078176;28;19933;-82
2021/10/06 09:19:43;;;;;;;;;;;10.40;99.90;;;;;;5077956;28;19924;-84
2021/10/06 09:22:13;;;;;;;;;;;10.40;99.90;;;;;;5077670;28;19931;-84
2021/10/06 09:25:05;;;;;;;;;;;10.40;99.90;;;;;;5077538;28;19944;-84
2021/10/06 09:27:32;;;;;;;;;;;10.40;99.90;;;;;;5058086;28;19924;-86
2021/10/06 09:29:59;;;;;;;;;;;10.50;99.90;;;;;;5077650;28;19924;-84
2021/10/06 09:32:27;;;;;;;;;;;10.50;99.90;;;;;;5077563;28;19925;-84
2021/10/06 09:35:05;;;;;;;;;;;10.60;99.90;;;;;;5076926;28;19950;-85
2021/10/06 09:37:32;;;;;;;;;;;10.60;99.90;;;;;;5077830;28;19938;-84
2021/10/06 09:39:59;;;;;;;;;;;10.70;99.90;;;;;;5077544;28;19935;-85
2021/10/06 09:42:26;;;;;;;;;;;10.70;99.90;;;;;;5077351;28;19934;-86
2021/10/06 09:44:53;;;;;;;;;;;10.80;99.90;;;;;;5077330;28;19938;-85
2021/10/06 09:47:20;;;;;;;;;;;10.80;99.90;;;;;;5077733;28;19939;-86
2021/10/06 09:49:52;;;;;;;;;;;10.80;99.90;;;;;;5075909;28;19934;-85
2021/10/06 09:52:21;;;;;;;;;;;10.90;99.90;;;;;;5077543;28;19924;-85
2021/10/06 09:54:49;;;;;;;;;;;10.90;99.90;;;;;;5077182;28;19935;-85
2021/10/06 09:57:22;;;;;;;;;;;10.90;99.90;;;;;;5077122;28;19932;-85
2021/10/06 09:59:49;;;;;;;;;;;11.00;99.90;;;;;;5077227;28;19924;-85
2021/10/06 10:02:16;;;;;;;;;;;10.90;99.90;;;;;;5077052;28;20282;-84
2021/10/06 10:04:42;;;;;;;;;;;11.00;99.90;;;;;;5077077;28;19928;-86
2021/10/06 10:07:09;;;;;;;;;;;11.10;99.90;;;;;;5077034;28;19965;-85
2021/10/06 10:09:38;;;;;;;;;;;11.10;99.90;;;;;;5076934;28;20281;-85
2021/10/06 10:12:05;;;;;;;;;;;11.20;99.90;;;;;;5076489;28;19935;-86
2021/10/06 10:14:32;;;;;;;;;;;11.30;99.90;;;;;;5076541;28;19946;-85
2021/10/06 10:16:59;;;;;;;;;;;11.30;99.90;;;;;;5076688;28;20369;-85
2021/10/06 10:19:31;;;;;;;;;;;11.40;99.90;;;;;;5076776;28;19925;-85
2021/10/06 10:21:57;;;;;;;;;;;11.50;99.90;;;;;;5059747;28;19924;-86
2021/10/06 10:24:25;;;;;;;;;;;11.60;99.90;;;;;;5076409;28;20251;-86
2021/10/06 10:26:57;;;;;;;;;;;11.70;99.90;;;;;;5076555;28;19929;-86
2021/10/06 10:29:43;;;;;;;;;;;11.70;99.90;;;;;;5076864;28;20010;-86
2021/10/06 10:32:13;;;;;;;;;;;11.80;99.90;;;;;;5076548;28;19924;-86
2021/10/06 10:34:59;;;;;;;;;;;11.90;99.90;;;;;;5076437;28;19924;-86
2021/10/06 10:37:44;;;;;;;;;;;11.90;99.90;;;;;;5076301;28;19932;-86
2021/10/06 10:40:24;;;;;;;;;;;12.00;99.90;;;;;;5076434;28;19925;-86
2021/10/06 10:42:58;;;;;;;;;;;12.10;99.90;;;;;;5076191;28;20282;-85
2021/10/06 10:45:35;;;;;;;;;;;12.20;99.90;;;;;;5076334;28;19928;-85
2021/10/06 10:48:01;;;;;;;;;;;12.20;99.90;;;;;;5076470;28;19930;-85
2021/10/06 10:50:37;;;;;;;;;;;12.30;99.90;;;;;;5076390;28;19935;-85
2021/10/06 10:53:04;;;;;;;;;;;12.40;99.90;;;;;;5076279;28;19951;-85
2021/10/06 10:55:43;;;;;;;;;;;12.40;99.90;;;;;;5075899;28;19924;-85
2021/10/06 10:58:25;;;;;;;;;;;12.50;99.90;;;;;;5076088;28;19925;-85
2021/10/06 11:00:53;;;;;;;;;;;12.60;99.90;;;;;;5075953;28;19934;-85
2021/10/06 11:03:20;;;;;;;;;;;12.60;99.90;;;;;;5075960;28;19960;-85
2021/10/06 11:05:47;;;;;;;;;;;12.70;99.90;;;;;;5075832;28;19935;-85
2021/10/06 11:08:22;;;;;;;;;;;12.70;99.90;;;;;;5075818;28;20006;-85
2021/10/06 11:10:49;;;;;;;;;;;12.70;99.90;;;;;;5075853;28;20351;-85
2021/10/06 11:13:16;;;;;;;;;;;12.70;99.90;;;;;;5075912;28;20365;-85
2021/10/06 11:15:47;;;;;;;;;;;12.70;99.90;;;;;;5075108;28;20457;-85
2021/10/06 11:18:17;;;;;;;;;;;12.70;99.90;;;;;;5075897;28;19928;-85
2021/10/06 11:20:45;;;;;;;;;;;12.70;99.90;;;;;;5075605;28;19929;-84
2021/10/06 11:23:30;;;;;;;;;;;12.70;99.90;;;;;;5075541;28;19935;-85
2021/10/06 11:25:57;;;;;;;;;;;12.60;99.90;;;;;;5075301;28;20380;-85
2021/10/06 11:28:24;;;;;;;;;;;12.60;99.90;;;;;;5075556;28;19934;-85
2021/10/06 11:30:54;;;;;;;;;;;12.50;99.90;;;;;;5075509;28;19924;-85
2021/10/06 11:33:26;;;;;;;;;;;12.50;99.90;;;;;;5074265;28;19935;-84
2021/10/06 11:35:53;;;;;;;;;;;12.50;99.90;;;;;;5075343;28;19925;-85
2021/10/06 11:38:20;;;;;;;;;;;12.60;99.90;;;;;;5075211;28;19924;-85
2021/10/06 11:40:46;;;;;;;;;;;12.50;99.90;;;;;;5074455;28;19935;-85
2021/10/06 11:43:13;;;;;;;;;;;12.50;99.90;;;;;;5075333;28;19928;-85
2021/10/06 11:45:47;;;;;;;;;;;12.40;99.90;;;;;;5075195;28;19924;-84
2021/10/06 11:48:14;;;;;;;;;;;12.40;99.90;;;;;;5075265;28;19924;-85
2021/10/06 11:50:46;;;;;;;;;;;12.30;99.90;;;;;;5074753;28;20222;-85
2021/10/06 11:53:13;;;;;;;;;;;12.30;99.90;;;;;;5075058;28;20362;-85
2021/10/06 11:55:47;;;;;;;;;;;12.30;99.90;;;;;;5075094;28;20376;-85
2021/10/06 11:58:29;;;;;;;;;;;12.30;99.90;;;;;;5075052;28;19929;-85
2021/10/06 12:01:03;;;;;;;;;;;12.30;99.90;;;;;;5074856;28;19925;-84
2021/10/06 12:03:35;;;;;;;;;;;12.30;99.90;;;;;;5075141;28;19950;-85
2021/10/06 12:06:03;;;;;;;;;;;12.30;99.90;;;;;;5074916;28;20276;-85
2021/10/06 12:08:30;;;;;;;;;;;12.40;99.90;;;;;;5074893;28;19934;-85
2021/10/06 12:10:57;;;;;;;;;;;12.50;99.90;;;;;;5074859;28;20351;-84
2021/10/06 12:13:33;;;;;;;;;;;12.70;99.90;;;;;;5073987;28;19928;-84
2021/10/06 12:16:00;;;;;;;;;;;12.90;99.90;;;;;;5074822;28;19931;-84
2021/10/06 12:18:27;;;;;;;;;;;13.10;99.90;;;;;;5074866;28;19925;-84
2021/10/06 12:20:54;;;;;;;;;;;13.20;99.90;;;;;;5074842;28;19935;-84
2021/10/06 12:23:25;;;;;;;;;;;13.30;99.90;;;;;;5074862;28;19931;-85
2021/10/06 12:25:55;;;;;;;;;;;13.30;99.90;;;;;;5074434;28;19935;-85
2021/10/06 12:28:22;;;;;;;;;;;13.40;99.90;;;;;;5074710;28;20262;-85
2021/10/06 12:30:53;;;;;;;;;;;13.50;99.90;;;;;;5074728;28;19924;-84
2021/10/06 12:33:20;;;;;;;;;;;13.60;99.90;;;;;;5074410;28;19939;-85
2021/10/06 12:35:47;;;;;;;;;;;13.60;99.90;;;;;;5074660;28;19925;-85
2021/10/06 12:38:14;;;;;;;;;;;13.60;99.90;;;;;;5074581;28;19928;-84
2021/10/06 12:40:43;;;;;;;;;;;13.60;99.90;;;;;;5074543;28;19924;-85
2021/10/06 12:43:10;;;;;;;;;;;13.50;99.90;;;;;;5074084;28;20019;-84
2021/10/06 12:45:37;;;;;;;;;;;13.40;99.90;;;;;;5074559;28;19924;-85
2021/10/06 12:48:04;;;;;;;;;;;13.40;99.90;;;;;;5074560;28;19944;-84
2021/10/06 12:50:31;;;;;;;;;;;13.30;99.90;;;;;;5074438;28;20292;-84
2021/10/06 12:53:07;;;;;;;;;;;13.30;99.90;;;;;;5074744;28;20266;-84
2021/10/06 12:55:34;;;;;;;;;;;13.20;99.90;;;;;;5074382;28;20273;-84
2021/10/06 12:58:08;;;;;;;;;;;13.20;99.90;;;;;;5074602;28;19928;-84
2021/10/06 13:00:35;;;;;;;;;;;13.20;99.90;;;;;;5074470;28;19925;-85
2021/10/06 13:03:02;;;;;;;;;;;13.20;99.90;;;;;;5074397;28;19935;-85
2021/10/06 13:05:29;;;;;;;;;;;13.30;99.90;;;;;;5074447;28;19931;-84
2021/10/06 13:07:56;;;;;;;;;;;13.30;99.90;;;;;;5074520;28;19934;-85
2021/10/06 13:10:23;;;;;;;;;;;13.30;99.90;;;;;;5074429;28;19935;-85
2021/10/06 13:12:50;;;;;;;;;;;13.40;99.90;;;;;;5074289;28;19924;-85
2021/10/06 13:15:18;;;;;;;;;;;13.30;99.90;;;;;;5074363;28;20007;-84
2021/10/06 13:17:45;;;;;;;;;;;13.30;99.90;;;;;;5074445;28;19926;-84
2021/10/06 13:20:12;;;;;;;;;;;13.20;99.90;;;;;;5074284;28;20370;-84
2021/10/06 13:22:41;;;;;;;;;;;13.20;99.90;;;;;;5074273;28;19924;-85
2021/10/06 13:25:08;;;;;;;;;;;13.10;99.90;;;;;;5076597;28;19925;-85
2021/10/06 13:27:35;;;;;;;;;;;13.20;99.90;;;;;;5077844;28;20281;-85
2021/10/06 13:30:03;;;;;;;;;;;13.20;99.90;;;;;;5077727;28;20261;-85
2021/10/06 13:32:32;;;;;;;;;;;13.20;99.90;;;;;;5077600;28;19924;-85
2021/10/06 13:34:58;;;;;;;;;;;13.30;99.90;;;;;;5078131;28;19933;-85
2021/10/06 13:37:25;;;;;;;;;;;13.20;99.90;;;;;;5077606;28;19925;-85
2021/10/06 13:39:52;;;;;;;;;;;13.20;99.90;;;;;;5077453;28;19925;-84
2021/10/06 13:42:19;;;;;;;;;;;13.30;99.90;;;;;;5077486;28;19935;-85
2021/10/06 13:44:46;;;;;;;;;;;13.30;99.90;;;;;;5077693;28;19925;-84
2021/10/06 13:47:13;;;;;;;;;;;13.30;99.90;;;;;;5077936;28;19924;-84
2021/10/06 13:49:41;;;;;;;;;;;13.20;99.90;;;;;;5077455;28;19924;-84
2021/10/06 13:52:08;;;;;;;;;;;13.20;99.90;;;;;;5077515;28;19925;-82
2021/10/06 13:54:35;;;;;;;;;;;13.30;99.90;;;;;;5077288;28;19935;-84
2021/10/06 13:57:02;;;;;;;;;;;13.20;99.90;;;;;;5077344;28;20015;-84
2021/10/06 13:59:29;;;;;;;;;;;13.20;99.90;;;;;;5077233;28;19924;-84
2021/10/06 14:01:56;;;;;;;;;;;13.20;99.90;;;;;;5077037;28;19924;-84
2021/10/06 14:04:24;;;;;;;;;;;13.30;99.90;;;;;;5077000;28;19943;-78
2021/10/06 14:06:52;;;;;;;;;;;13.30;99.90;;;;;;5078179;28;19924;-76
2021/10/06 14:09:19;;;;;;;;;;;13.30;99.90;;;;;;5077158;28;19931;-76
2021/10/06 14:11:45;;;;;;;;;;;13.20;99.90;;;;;;5077089;28;19931;-76
2021/10/06 14:14:12;;;;;;;;;;;13.20;99.90;;;;;;5077940;28;19934;-77
2021/10/06 14:16:39;;;;;;;;;;;13.10;99.90;;;;;;5077138;28;19924;-77
2021/10/06 14:19:06;;;;;;;;;;;13.10;99.90;;;;;;5077497;28;19925;-77
2021/10/06 14:21:33;;;;;;;;;;;13.00;99.90;;;;;;5076615;28;19946;-78
2021/10/06 14:24:01;;;;;;;;;;;13.10;99.90;;;;;;5076642;28;19924;-77
2021/10/06 14:26:28;;;;;;;;;;;13.10;99.90;;;;;;5076868;28;19931;-77
2021/10/06 14:28:55;;;;;;;;;;;13.10;99.90;;;;;;5077057;28;19938;-77
2021/10/06 14:31:22;;;;;;;;;;;13.10;99.90;;;;;;5076806;28;19935;-76
2021/10/06 14:33:48;;;;;;;;;;;13.00;99.90;;;;;;5076706;28;19935;-76
2021/10/06 14:36:15;;;;;;;;;;;13.20;99.90;;;;;;5076352;28;19935;-76
2021/10/06 14:38:42;;;;;;;;;;;13.20;99.90;;;;;;5076709;28;19930;-77
2021/10/06 14:41:10;;;;;;;;;;;13.30;99.90;;;;;;5076569;28;20014;-76
2021/10/06 14:43:37;;;;;;;;;;;13.30;99.90;;;;;;5076292;28;19935;-79
2021/10/06 14:46:04;;;;;;;;;;;13.30;99.90;;;;;;5076160;28;19929;-78
2021/10/06 14:48:32;;;;;;;;;;;13.30;99.90;;;;;;5076498;28;19925;-78
2021/10/06 14:50:59;;;;;;;;;;;13.30;99.90;;;;;;5076384;28;19932;-78
2021/10/06 14:53:26;;;;;;;;;;;13.20;99.90;;;;;;5076252;28;20035;-78
2021/10/06 14:55:53;;;;;;;;;;;13.20;99.90;;;;;;5075971;28;19935;-79
2021/10/06 14:58:22;;;;;;;;;;;13.20;99.90;;;;;;5075909;28;19934;-80
2021/10/06 15:00:51;;;;;;;;;;;13.20;99.90;;;;;;5076317;28;19985;-78
2021/10/06 15:03:18;;;;;;;;;;;13.20;99.90;;;;;;5076063;28;19924;-78
2021/10/06 15:05:45;;;;;;;;;;;13.30;99.90;;;;;;5075962;28;19929;-78
2021/10/06 15:08:12;;;;;;;;;;;13.30;99.90;;;;;;5075732;28;19932;-80
2021/10/06 15:10:39;;;;;;;;;;;13.30;99.90;;;;;;5075848;28;19931;-77
2021/10/06 15:13:05;;;;;;;;;;;13.30;99.90;;;;;;5075728;28;19924;-78
2021/10/06 15:15:34;;;;;;;;;;;13.30;99.90;;;;;;5075933;28;19924;-80
2021/10/06 15:18:01;;;;;;;;;;;13.30;99.90;;;;;;5075585;28;20019;-78
2021/10/06 15:20:28;;;;;;;;;;;13.30;99.90;;;;;;5075747;28;19978;-78
2021/10/06 15:22:54;;;;;;;;;;;13.40;99.90;;;;;;5075673;28;19928;-78
2021/10/06 15:25:21;;;;;;;;;;;13.40;99.90;;;;;;5075662;28;19935;-78
2021/10/06 15:27:48;;;;;;;;;;;13.30;99.90;;;;;;5075315;28;19929;-80
2021/10/06 15:30:15;;;;;;;;;;;13.30;99.90;;;;;;5075400;28;19935;-79
2021/10/06 15:32:43;;;;;;;;;;;13.30;99.90;;;;;;5075419;28;19931;-80
2021/10/06 15:35:10;;;;;;;;;;;13.30;99.90;;;;;;5075438;28;20384;-78
2021/10/06 15:37:37;;;;;;;;;;;13.30;99.90;;;;;;5075324;28;19947;-78
2021/10/06 15:40:05;;;;;;;;;;;13.20;99.90;;;;;;5075529;28;19928;-78
2021/10/06 15:42:32;;;;;;;;;;;13.20;99.90;;;;;;5075181;28;19931;-79
2021/10/06 15:44:58;;;;;;;;;;;13.20;99.90;;;;;;5075136;28;20381;-79
2021/10/06 15:47:25;;;;;;;;;;;13.20;99.90;;;;;;5075218;28;20384;-80
2021/10/06 15:49:53;;;;;;;;;;;13.20;99.90;;;;;;5075116;28;20403;-78
2021/10/06 15:52:20;;;;;;;;;;;13.10;99.90;;;;;;5075286;28;19925;-80
2021/10/06 15:54:51;;;;;;;;;;;13.10;99.90;;;;;;5074971;28;19925;-78
2021/10/06 15:57:17;;;;;;;;;;;13.10;99.90;;;;;;5074857;28;20231;-78
2021/10/06 15:59:44;;;;;;;;;;;13.10;99.90;;;;;;5074665;28;19934;-77
2021/10/06 16:02:11;;;;;;;;;;;13.00;99.90;;;;;;5074881;28;19972;-78
2021/10/06 16:04:39;;;;;;;;;;;13.00;99.90;;;;;;5074617;28;19924;-78
2021/10/06 16:07:07;;;;;;;;;;;13.00;99.90;;;;;;5071755;28;19978;-79
2021/10/06 16:09:34;;;;;;;;;;;13.00;99.90;;;;;;5074489;28;19929;-78
2021/10/06 16:12:02;;;;;;;;;;;13.00;99.90;;;;;;5074736;28;19935;-78
2021/10/06 16:14:29;;;;;;;;;;;13.00;99.90;;;;;;5074551;28;19998;-78
2021/10/06 16:16:56;;;;;;;;;;;13.00;99.90;;;;;;5074625;28;19924;-78
2021/10/06 16:19:23;;;;;;;;;;;13.00;99.90;;;;;;5074182;28;19925;-79
2021/10/06 16:21:50;;;;;;;;;;;13.00;99.90;;;;;;5074876;28;19924;-79
2021/10/06 16:24:19;;;;;;;;;;;13.00;99.90;;;;;;5074748;28;19925;-78
2021/10/06 16:26:46;;;;;;;;;;;12.90;99.90;;;;;;5074841;28;19924;-78
2021/10/06 16:29:13;;;;;;;;;;;12.90;99.90;;;;;;5075070;28;19924;-78
2021/10/06 16:31:40;;;;;;;;;;;12.90;99.90;;;;;;5075760;28;19925;-77
2021/10/06 16:34:08;;;;;;;;;;;12.90;99.90;;;;;;5076282;28;19975;-95
2021/10/06 16:36:34;;;;;;;;;;;12.80;99.90;;;;;;5074845;28;20023;-76
2021/10/06 16:39:01;;;;;;;;;;;12.80;99.90;;;;;;5074743;28;19931;-76
2021/10/06 16:41:29;;;;;;;;;;;12.80;99.90;;;;;;5074920;28;19953;-77
2021/10/06 16:43:56;;;;;;;;;;;12.80;99.90;;;;;;5074627;28;19925;-78
2021/10/06 16:46:23;;;;;;;;;;;12.70;99.90;;;;;;5074712;28;20015;-78
2021/10/06 16:48:50;;;;;;;;;;;12.70;99.90;;;;;;5074679;28;19924;-77
2021/10/06 16:51:17;;;;;;;;;;;12.70;99.90;;;;;;5074517;28;19946;-76
2021/10/06 16:53:44;;;;;;;;;;;12.70;99.90;;;;;;5074581;28;19924;-78
2021/10/06 16:56:11;;;;;;;;;;;12.60;99.90;;;;;;5074448;28;20346;-77
2021/10/06 16:58:39;;;;;;;;;;;12.70;99.90;;;;;;5074462;28;19986;-78